sensor_id;sensor_type;location;lat;lon;timestamp;pressure;altitude;pressure_sealevel;temperature;humidity
55604;BME280;41468;48.838;9.330;2022-12-18T00:01:29;99469.34;;;-6.70;76.65
55604;BME280;41468;48.838;9.330;2022-12-18T00:04:04;99462.56;;;-6.65;77.30
55604;BME280;41468;48.838;9.330;2022-12-18T00:06:36;99466.91;;;-6.41;77.77
55604;BME280;41468;48.838;9.330;2022-12-18T00:09:03;99465.31;;;-6.30;76.83
55604;BME280;41468;48.838;9.330;2022-12-18T00:11:30;99466.56;;;-6.33;77.13
55604;BME280;41468;48.838;9.330;2022-12-18T00:14:02;99463.22;;;-6.05;76.59
55604;BME280;41468;48.838;9.330;2022-12-18T00:16:29;99464.97;;;-6.10;76.09
55604;BME280;41468;48.838;9.330;2022-12-18T00:18:59;99464.28;;;-6.06;76.48
55604;BME280;41468;48.838;9.330;2022-12-18T00:21:28;99463.91;;;-6.21;75.89
55604;BME280;41468;48.838;9.330;2022-12-18T00:23:55;99472.81;;;-6.15;75.39
55604;BME280;41468;48.838;9.330;2022-12-18T00:26:24;99483.81;;;-6.12;75.79
55604;BME280;41468;48.838;9.330;2022-12-18T00:28:52;99479.66;;;-6.19;76.47
55604;BME280;41468;48.838;9.330;2022-12-18T00:31:21;99466.94;;;-6.06;75.88
55604;BME280;41468;48.838;9.330;2022-12-18T00:33:49;99484.38;;;-6.22;76.08
55604;BME280;41468;48.838;9.330;2022-12-18T00:36:26;99475.47;;;-6.39;74.00
55604;BME280;41468;48.838;9.330;2022-12-18T00:38:54;99477.19;;;-6.33;75.19
55604;BME280;41468;48.838;9.330;2022-12-18T00:41:22;99475.94;;;-6.30;75.45
55604;BME280;41468;48.838;9.330;2022-12-18T00:44:10;99486.66;;;-6.79;75.19
55604;BME280;41468;48.838;9.330;2022-12-18T00:46:37;99473.56;;;-6.92;76.14
55604;BME280;41468;48.838;9.330;2022-12-18T00:49:04;99479.03;;;-6.75;75.59
55604;BME280;41468;48.838;9.330;2022-12-18T00:51:31;99477.06;;;-6.50;74.95
55604;BME280;41468;48.838;9.330;2022-12-18T00:53:57;99478.31;;;-6.52;74.78
55604;BME280;41468;48.838;9.330;2022-12-18T00:56:24;99470.41;;;-7.01;74.97
55604;BME280;41468;48.838;9.330;2022-12-18T00:58:51;99467.44;;;-6.93;74.92
55604;BME280;41468;48.838;9.330;2022-12-18T01:01:18;99465.91;;;-6.58;75.41
55604;BME280;41468;48.838;9.330;2022-12-18T01:03:46;99468.03;;;-6.60;75.08
55604;BME280;41468;48.838;9.330;2022-12-18T01:06:24;99471.88;;;-6.45;74.92
55604;BME280;41468;48.838;9.330;2022-12-18T01:08:51;99467.31;;;-6.56;74.76
55604;BME280;41468;48.838;9.330;2022-12-18T01:11:19;99468.28;;;-6.38;74.87
55604;BME280;41468;48.838;9.330;2022-12-18T01:13:46;99466.66;;;-6.39;74.67
55604;BME280;41468;48.838;9.330;2022-12-18T01:16:15;99468.72;;;-6.53;75.35
55604;BME280;41468;48.838;9.330;2022-12-18T01:18:42;99476.59;;;-6.47;74.58
55604;BME280;41468;48.838;9.330;2022-12-18T01:21:11;99475.75;;;-6.89;74.58
55604;BME280;41468;48.838;9.330;2022-12-18T01:23:38;99476.88;;;-6.97;73.99
55604;BME280;41468;48.838;9.330;2022-12-18T01:26:11;99482.25;;;-6.85;74.77
55604;BME280;41468;48.838;9.330;2022-12-18T01:28:39;99483.22;;;-6.79;74.53
55604;BME280;41468;48.838;9.330;2022-12-18T01:31:20;99479.25;;;-7.07;74.34
55604;BME280;41468;48.838;9.330;2022-12-18T01:33:47;99487.38;;;-7.20;75.09
55604;BME280;41468;48.838;9.330;2022-12-18T01:36:26;99489.53;;;-7.29;76.13
55604;BME280;41468;48.838;9.330;2022-12-18T01:38:53;99493.72;;;-7.03;75.97
55604;BME280;41468;48.838;9.330;2022-12-18T01:41:23;99499.38;;;-6.99;76.64
55604;BME280;41468;48.838;9.330;2022-12-18T01:43:53;99499.34;;;-6.81;76.72
55604;BME280;41468;48.838;9.330;2022-12-18T01:46:22;99493.50;;;-6.71;76.68
55604;BME280;41468;48.838;9.330;2022-12-18T01:48:53;99486.63;;;-6.49;76.27
55604;BME280;41468;48.838;9.330;2022-12-18T01:51:23;99481.19;;;-6.54;76.30
55604;BME280;41468;48.838;9.330;2022-12-18T01:53:50;99482.25;;;-6.43;76.34
55604;BME280;41468;48.838;9.330;2022-12-18T01:56:18;99497.88;;;-6.35;75.72
55604;BME280;41468;48.838;9.330;2022-12-18T01:58:52;99484.59;;;-6.35;75.17
55604;BME280;41468;48.838;9.330;2022-12-18T02:01:24;99484.19;;;-6.50;75.05
55604;BME280;41468;48.838;9.330;2022-12-18T02:03:52;99471.81;;;-6.56;75.77
55604;BME280;41468;48.838;9.330;2022-12-18T02:06:40;99477.28;;;-6.51;75.72
55604;BME280;41468;48.838;9.330;2022-12-18T02:09:13;99485.16;;;-6.45;75.05
55604;BME280;41468;48.838;9.330;2022-12-18T02:16:52;99476.34;;;-6.57;74.38
55604;BME280;41468;48.838;9.330;2022-12-18T02:22:48;99474.97;;;-6.48;74.62
55604;BME280;41468;48.838;9.330;2022-12-18T02:27:48;99494.59;;;-6.60;74.87
55604;BME280;41468;48.838;9.330;2022-12-18T02:30:17;99504.03;;;-6.64;75.01
55604;BME280;41468;48.838;9.330;2022-12-18T02:32:48;99501.63;;;-6.66;75.75
55604;BME280;41468;48.838;9.330;2022-12-18T02:35:20;99494.25;;;-6.52;75.52
55604;BME280;41468;48.838;9.330;2022-12-18T02:37:49;99503.63;;;-6.50;75.41
55604;BME280;41468;48.838;9.330;2022-12-18T02:40:17;99496.91;;;-6.52;75.07
55604;BME280;41468;48.838;9.330;2022-12-18T02:42:45;99493.88;;;-6.26;75.53
55604;BME280;41468;48.838;9.330;2022-12-18T02:45:16;99497.28;;;-6.37;75.34
55604;BME280;41468;48.838;9.330;2022-12-18T02:47:45;99493.88;;;-6.26;75.39
55604;BME280;41468;48.838;9.330;2022-12-18T02:58:12;99519.91;;;-6.46;74.93
55604;BME280;41468;48.838;9.330;2022-12-18T03:03:27;99519.78;;;-6.51;74.69
55604;BME280;41468;48.838;9.330;2022-12-18T03:06:00;99512.09;;;-6.71;75.55
55604;BME280;41468;48.838;9.330;2022-12-18T03:08:31;99511.84;;;-6.81;75.97
55604;BME280;41468;48.838;9.330;2022-12-18T03:11:06;99513.44;;;-6.50;75.42
55604;BME280;41468;48.838;9.330;2022-12-18T03:13:48;99513.44;;;-6.50;75.70
55604;BME280;41468;48.838;9.330;2022-12-18T03:16:24;99509.63;;;-6.84;76.29
55604;BME280;41468;48.838;9.330;2022-12-18T03:19:04;99504.81;;;-6.76;76.07
55604;BME280;41468;48.838;9.330;2022-12-18T03:21:51;99511.41;;;-6.67;76.03
55604;BME280;41468;48.838;9.330;2022-12-18T03:24:20;99520.38;;;-6.49;75.78
55604;BME280;41468;48.838;9.330;2022-12-18T03:26:51;99522.91;;;-6.54;75.66
55604;BME280;41468;48.838;9.330;2022-12-18T03:29:25;99528.34;;;-6.49;74.96
55604;BME280;41468;48.838;9.330;2022-12-18T03:31:56;99537.94;;;-6.48;75.00
55604;BME280;41468;48.838;9.330;2022-12-18T03:34:31;99534.06;;;-6.34;74.80
55604;BME280;41468;48.838;9.330;2022-12-18T03:36:58;99526.31;;;-6.35;74.52
55604;BME280;41468;48.838;9.330;2022-12-18T03:39:25;99525.97;;;-6.27;74.07
55604;BME280;41468;48.838;9.330;2022-12-18T03:42:06;99532.09;;;-6.27;74.25
55604;BME280;41468;48.838;9.330;2022-12-18T03:44:36;99524.50;;;-6.23;74.49
55604;BME280;41468;48.838;9.330;2022-12-18T03:47:15;99537.63;;;-6.40;74.98
55604;BME280;41468;48.838;9.330;2022-12-18T03:52:41;99527.84;;;-6.88;76.41
55604;BME280;41468;48.838;9.330;2022-12-18T03:55:12;99524.06;;;-6.80;76.32
55604;BME280;41468;48.838;9.330;2022-12-18T03:57:39;99529.47;;;-6.57;76.01
55604;BME280;41468;48.838;9.330;2022-12-18T04:00:11;99523.34;;;-6.57;75.19
55604;BME280;41468;48.838;9.330;2022-12-18T04:02:43;99523.34;;;-6.57;75.74
55604;BME280;41468;48.838;9.330;2022-12-18T04:05:12;99514.59;;;-6.58;75.39
55604;BME280;41468;48.838;9.330;2022-12-18T04:07:41;99524.50;;;-6.53;75.55
55604;BME280;41468;48.838;9.330;2022-12-18T04:10:09;99525.09;;;-6.51;74.65
55604;BME280;41468;48.838;9.330;2022-12-18T04:12:37;99522.94;;;-6.73;75.05
55604;BME280;41468;48.838;9.330;2022-12-18T04:15:04;99523.16;;;-6.44;74.65
55604;BME280;41468;48.838;9.330;2022-12-18T04:17:31;99516.47;;;-6.35;74.84
55604;BME280;41468;48.838;9.330;2022-12-18T04:19:58;99514.13;;;-6.55;74.88
55604;BME280;41468;48.838;9.330;2022-12-18T04:22:25;99518.50;;;-6.60;75.26
55604;BME280;41468;48.838;9.330;2022-12-18T04:24:51;99518.41;;;-6.84;76.05
55604;BME280;41468;48.838;9.330;2022-12-18T04:27:18;99516.66;;;-7.08;75.96
55604;BME280;41468;48.838;9.330;2022-12-18T04:29:45;99519.31;;;-7.08;76.24
55604;BME280;41468;48.838;9.330;2022-12-18T04:32:11;99526.97;;;-7.37;76.47
55604;BME280;41468;48.838;9.330;2022-12-18T04:34:38;99531.97;;;-7.66;76.97
55604;BME280;41468;48.838;9.330;2022-12-18T04:37:05;99537.22;;;-7.59;77.73
55604;BME280;41468;48.838;9.330;2022-12-18T04:39:31;99540.66;;;-7.59;77.27
55604;BME280;41468;48.838;9.330;2022-12-18T04:41:59;99536.44;;;-7.41;76.95
55604;BME280;41468;48.838;9.330;2022-12-18T04:44:26;99548.22;;;-7.81;76.96
55604;BME280;41468;48.838;9.330;2022-12-18T04:46:53;99542.66;;;-7.97;77.26
55604;BME280;41468;48.838;9.330;2022-12-18T04:49:24;99534.47;;;-7.71;77.72
55604;BME280;41468;48.838;9.330;2022-12-18T04:51:51;99523.47;;;-7.49;77.35
55604;BME280;41468;48.838;9.330;2022-12-18T04:54:19;99524.38;;;-7.07;77.61
55604;BME280;41468;48.838;9.330;2022-12-18T04:56:53;99519.00;;;-6.82;77.04
55604;BME280;41468;48.838;9.330;2022-12-18T04:59:20;99516.91;;;-6.80;76.70
55604;BME280;41468;48.838;9.330;2022-12-18T05:01:47;99525.56;;;-6.84;76.57
55604;BME280;41468;48.838;9.330;2022-12-18T05:04:14;99522.25;;;-6.98;76.88
55604;BME280;41468;48.838;9.330;2022-12-18T05:06:40;99524.19;;;-7.24;76.44
55604;BME280;41468;48.838;9.330;2022-12-18T05:09:07;99511.81;;;-7.12;76.67
55604;BME280;41468;48.838;9.330;2022-12-18T05:11:35;99516.06;;;-7.11;76.97
55604;BME280;41468;48.838;9.330;2022-12-18T05:14:01;99521.50;;;-6.87;77.16
55604;BME280;41468;48.838;9.330;2022-12-18T05:16:33;99521.50;;;-6.87;77.30
55604;BME280;41468;48.838;9.330;2022-12-18T05:19:00;99528.28;;;-6.91;77.06
55604;BME280;41468;48.838;9.330;2022-12-18T05:21:26;99516.91;;;-6.80;77.56
55604;BME280;41468;48.838;9.330;2022-12-18T05:23:53;99524.94;;;-6.68;77.23
55604;BME280;41468;48.838;9.330;2022-12-18T05:26:20;99526.34;;;-6.65;77.00
55604;BME280;41468;48.838;9.330;2022-12-18T05:28:47;99525.56;;;-6.54;76.80
55604;BME280;41468;48.838;9.330;2022-12-18T05:31:13;99519.78;;;-6.51;76.84
55604;BME280;41468;48.838;9.330;2022-12-18T05:33:40;99521.84;;;-6.53;76.56
55604;BME280;41468;48.838;9.330;2022-12-18T05:36:08;99524.19;;;-6.45;76.16
55604;BME280;41468;48.838;9.330;2022-12-18T05:38:37;99527.69;;;-6.45;75.94
55604;BME280;41468;48.838;9.330;2022-12-18T05:41:05;99535.13;;;-6.53;75.40
55604;BME280;41468;48.838;9.330;2022-12-18T05:43:34;99538.44;;;-6.70;75.21
55604;BME280;41468;48.838;9.330;2022-12-18T05:46:06;99533.75;;;-6.56;75.26
55604;BME280;41468;48.838;9.330;2022-12-18T05:48:33;99531.97;;;-6.74;75.26
55604;BME280;41468;48.838;9.330;2022-12-18T05:51:09;99539.28;;;-6.87;76.14
55604;BME280;41468;48.838;9.330;2022-12-18T05:53:37;99532.28;;;-7.00;76.14
55604;BME280;41468;48.838;9.330;2022-12-18T05:56:07;99533.88;;;-6.81;75.83
55604;BME280;41468;48.838;9.330;2022-12-18T05:58:34;99550.44;;;-6.97;75.67
55604;BME280;41468;48.838;9.330;2022-12-18T06:01:09;99532.75;;;-7.22;75.92
55604;BME280;41468;48.838;9.330;2022-12-18T06:03:36;99535.97;;;-7.57;76.75
55604;BME280;41468;48.838;9.330;2022-12-18T06:06:03;99537.25;;;-7.66;77.73
55604;BME280;41468;48.838;9.330;2022-12-18T06:08:29;99538.53;;;-7.93;78.03
55604;BME280;41468;48.838;9.330;2022-12-18T06:10:56;99536.22;;;-7.83;77.72
55604;BME280;41468;48.838;9.330;2022-12-18T06:13:23;99533.88;;;-7.98;77.95
55604;BME280;41468;48.838;9.330;2022-12-18T06:15:49;99542.38;;;-8.14;77.67
55604;BME280;41468;48.838;9.330;2022-12-18T06:18:16;99543.78;;;-8.12;78.26
55604;BME280;41468;48.838;9.330;2022-12-18T06:20:43;99541.56;;;-8.15;78.78
55604;BME280;41468;48.838;9.330;2022-12-18T06:23:10;99553.63;;;-8.19;78.94
55604;BME280;41468;48.838;9.330;2022-12-18T06:25:38;99553.94;;;-8.09;79.10
55604;BME280;41468;48.838;9.330;2022-12-18T06:28:05;99551.63;;;-7.98;78.58
55604;BME280;41468;48.838;9.330;2022-12-18T06:30:32;99546.75;;;-7.77;76.66
55604;BME280;41468;48.838;9.330;2022-12-18T06:32:58;99547.03;;;-7.41;76.04
55604;BME280;41468;48.838;9.330;2022-12-18T06:35:25;99553.94;;;-7.59;75.58
55604;BME280;41468;48.838;9.330;2022-12-18T06:37:52;99536.44;;;-7.41;75.39
55604;BME280;41468;48.838;9.330;2022-12-18T06:40:18;99541.88;;;-7.36;75.09
55604;BME280;41468;48.838;9.330;2022-12-18T06:42:45;99544.16;;;-7.21;74.93
55604;BME280;41468;48.838;9.330;2022-12-18T06:45:14;99554.75;;;-7.58;74.87
55604;BME280;41468;48.838;9.330;2022-12-18T06:47:41;99549.16;;;-7.31;74.74
55604;BME280;41468;48.838;9.330;2022-12-18T06:50:08;99555.13;;;-7.54;74.82
55604;BME280;41468;48.838;9.330;2022-12-18T06:52:35;99557.91;;;-7.68;75.39
55604;BME280;41468;48.838;9.330;2022-12-18T06:55:02;99549.19;;;-7.75;76.11
55604;BME280;41468;48.838;9.330;2022-12-18T06:57:28;99562.16;;;-7.67;75.00
55604;BME280;41468;48.838;9.330;2022-12-18T06:59:55;99565.09;;;-7.75;75.99
55604;BME280;41468;48.838;9.330;2022-12-18T07:02:22;99568.13;;;-7.96;76.33
55604;BME280;41468;48.838;9.330;2022-12-18T07:04:49;99560.34;;;-7.91;76.96
55604;BME280;41468;48.838;9.330;2022-12-18T07:07:15;99567.88;;;-7.88;76.27
55604;BME280;41468;48.838;9.330;2022-12-18T07:09:42;99566.78;;;-7.81;76.00
55604;BME280;41468;48.838;9.330;2022-12-18T07:12:09;99568.56;;;-7.49;75.25
55604;BME280;41468;48.838;9.330;2022-12-18T07:14:44;99580.81;;;-7.55;74.61
55604;BME280;41468;48.838;9.330;2022-12-18T07:17:10;99585.19;;;-7.42;74.70
55604;BME280;41468;48.838;9.330;2022-12-18T07:19:37;99583.63;;;-7.50;74.18
55604;BME280;41468;48.838;9.330;2022-12-18T07:22:04;99585.19;;;-7.42;74.07
55604;BME280;41468;48.838;9.330;2022-12-18T07:24:42;99590.75;;;-7.44;73.82
55604;BME280;41468;48.838;9.330;2022-12-18T07:27:15;99591.91;;;-7.83;74.75
55604;BME280;41468;48.838;9.330;2022-12-18T07:29:42;99589.19;;;-7.77;75.04
55604;BME280;41468;48.838;9.330;2022-12-18T07:32:09;99591.78;;;-7.70;75.19
55604;BME280;41468;48.838;9.330;2022-12-18T07:34:35;99595.13;;;-7.56;74.96
55604;BME280;41468;48.838;9.330;2022-12-18T07:37:02;99595.00;;;-7.43;74.44
55604;BME280;41468;48.838;9.330;2022-12-18T07:39:29;99601.69;;;-7.59;74.58
55604;BME280;41468;48.838;9.330;2022-12-18T07:41:56;99607.75;;;-7.51;74.43
55604;BME280;41468;48.838;9.330;2022-12-18T07:44:41;99604.97;;;-7.38;73.75
55604;BME280;41468;48.838;9.330;2022-12-18T07:47:08;99608.63;;;-7.83;74.15
55604;BME280;41468;48.838;9.330;2022-12-18T07:49:37;99602.06;;;-7.55;74.65
55604;BME280;41468;48.838;9.330;2022-12-18T07:52:04;99598.81;;;-7.57;74.56
55604;BME280;41468;48.838;9.330;2022-12-18T07:54:31;99608.38;;;-7.31;74.31
55604;BME280;41468;48.838;9.330;2022-12-18T07:56:57;99606.16;;;-7.34;74.55
55604;BME280;41468;48.838;9.330;2022-12-18T07:59:24;99608.59;;;-7.58;75.27
55604;BME280;41468;48.838;9.330;2022-12-18T08:01:51;99601.75;;;-7.65;75.87
55604;BME280;41468;48.838;9.330;2022-12-18T08:04:18;99613.22;;;-7.71;76.83
55604;BME280;41468;48.838;9.330;2022-12-18T08:06:45;99619.00;;;-7.81;77.87
55604;BME280;41468;48.838;9.330;2022-12-18T08:09:13;99608.22;;;-7.61;77.27
55604;BME280;41468;48.838;9.330;2022-12-18T08:11:40;99614.63;;;-7.44;77.98
55604;BME280;41468;48.838;9.330;2022-12-18T08:14:07;99607.88;;;-7.21;78.50
55604;BME280;41468;48.838;9.330;2022-12-18T08:16:34;99607.81;;;-6.78;80.14
55604;BME280;41468;48.838;9.330;2022-12-18T08:19:01;99598.09;;;-6.54;77.69
55604;BME280;41468;48.838;9.330;2022-12-18T08:21:30;99595.53;;;-6.42;78.58
55604;BME280;41468;48.838;9.330;2022-12-18T08:23:58;99607.47;;;-6.21;77.33
55604;BME280;41468;48.838;9.330;2022-12-18T08:26:29;99606.34;;;-6.13;76.79
55604;BME280;41468;48.838;9.330;2022-12-18T08:28:57;99607.41;;;-6.14;77.09
55604;BME280;41468;48.838;9.330;2022-12-18T08:31:26;99602.53;;;-6.17;76.83
55604;BME280;41468;48.838;9.330;2022-12-18T08:33:54;99611.09;;;-6.15;76.39
55604;BME280;41468;48.838;9.330;2022-12-18T08:36:21;99613.41;;;-6.07;76.20
55604;BME280;41468;48.838;9.330;2022-12-18T08:38:48;99607.44;;;-5.91;78.07
55604;BME280;41468;48.838;9.330;2022-12-18T08:41:16;99608.84;;;-5.77;77.86
55604;BME280;41468;48.838;9.330;2022-12-18T08:43:43;99604.44;;;-5.83;77.37
55604;BME280;41468;48.838;9.330;2022-12-18T08:46:43;99606.53;;;-5.73;77.50
55604;BME280;41468;48.838;9.330;2022-12-18T08:49:11;99612.22;;;-5.69;78.60
55604;BME280;41468;48.838;9.330;2022-12-18T08:51:38;99609.91;;;-5.66;77.51
55604;BME280;41468;48.838;9.330;2022-12-18T08:54:06;99609.81;;;-4.60;87.51
55604;BME280;41468;48.838;9.330;2022-12-18T08:56:33;99596.00;;;-4.97;78.68
55604;BME280;41468;48.838;9.330;2022-12-18T08:59:00;99608.50;;;-4.98;78.35
55604;BME280;41468;48.838;9.330;2022-12-18T09:01:28;99603.88;;;-4.91;78.20
55604;BME280;41468;48.838;9.330;2022-12-18T09:03:55;99602.13;;;-4.85;78.28
55604;BME280;41468;48.838;9.330;2022-12-18T09:06:22;99600.94;;;-4.77;79.10
55604;BME280;41468;48.838;9.330;2022-12-18T09:08:49;99592.59;;;-4.69;78.39
55604;BME280;41468;48.838;9.330;2022-12-18T09:11:26;99590.03;;;-4.76;78.15
55604;BME280;41468;48.838;9.330;2022-12-18T09:13:54;99586.06;;;-4.61;78.26
55604;BME280;41468;48.838;9.330;2022-12-18T09:16:23;99590.56;;;-4.50;78.47
55604;BME280;41468;48.838;9.330;2022-12-18T09:18:58;99588.78;;;-4.45;78.18
55604;BME280;41468;48.838;9.330;2022-12-18T09:21:30;99581.28;;;-4.48;78.49
55604;BME280;41468;48.838;9.330;2022-12-18T09:24:02;99585.28;;;-4.16;77.86
55604;BME280;41468;48.838;9.330;2022-12-18T09:26:30;99589.41;;;-3.80;76.92
55604;BME280;41468;48.838;9.330;2022-12-18T09:28:56;99584.81;;;-3.68;74.89
55604;BME280;41468;48.838;9.330;2022-12-18T09:31:34;99587.78;;;-3.47;74.95
55604;BME280;41468;48.838;9.330;2022-12-18T09:34:00;99573.19;;;-3.40;74.78
55604;BME280;41468;48.838;9.330;2022-12-18T09:36:27;99577.63;;;-3.12;73.13
55604;BME280;41468;48.838;9.330;2022-12-18T09:38:54;99579.09;;;-2.99;73.64
55604;BME280;41468;48.838;9.330;2022-12-18T09:44:30;99570.16;;;-3.65;74.60
55604;BME280;41468;48.838;9.330;2022-12-18T09:49:53;99562.31;;;-3.72;77.05
55604;BME280;41468;48.838;9.330;2022-12-18T09:52:44;99564.97;;;-3.72;76.73
55604;BME280;41468;48.838;9.330;2022-12-18T09:55:34;99564.47;;;-3.69;77.21
55604;BME280;41468;48.838;9.330;2022-12-18T09:58:13;99552.44;;;-3.71;79.21
55604;BME280;41468;48.838;9.330;2022-12-18T10:00:42;99551.22;;;-3.64;79.72
55604;BME280;41468;48.838;9.330;2022-12-18T10:03:11;99547.56;;;-3.58;80.39
55604;BME280;41468;48.838;9.330;2022-12-18T10:05:44;99548.28;;;-3.45;80.19
55604;BME280;41468;48.838;9.330;2022-12-18T10:08:33;99552.47;;;-3.49;80.81
55604;BME280;41468;48.838;9.330;2022-12-18T10:13:55;99554.53;;;-3.57;83.26
55604;BME280;41468;48.838;9.330;2022-12-18T10:17:26;99551.06;;;-3.57;83.22
55604;BME280;41468;48.838;9.330;2022-12-18T10:24:57;99555.69;;;-3.14;84.47
55604;BME280;41468;48.838;9.330;2022-12-18T10:27:28;99561.53;;;-3.17;82.58
55604;BME280;41468;48.838;9.330;2022-12-18T10:30:04;99568.53;;;-3.11;82.38
55604;BME280;41468;48.838;9.330;2022-12-18T10:32:32;99560.66;;;-3.00;83.15
55604;BME280;41468;48.838;9.330;2022-12-18T10:34:59;99565.94;;;-3.05;82.40
55604;BME280;41468;48.838;9.330;2022-12-18T10:37:28;99558.94;;;-2.90;82.70
55604;BME280;41468;48.838;9.330;2022-12-18T10:40:13;99557.63;;;-2.87;81.94
55604;BME280;41468;48.838;9.330;2022-12-18T10:43:03;99562.41;;;-2.89;82.09
55604;BME280;41468;48.838;9.330;2022-12-18T10:45:30;99565.94;;;-2.83;81.77
55604;BME280;41468;48.838;9.330;2022-12-18T10:47:57;99563.03;;;-2.82;81.89
55604;BME280;41468;48.838;9.330;2022-12-18T10:50:37;99565.34;;;-2.69;81.95
55604;BME280;41468;48.838;9.330;2022-12-18T10:53:29;99567.56;;;-2.60;81.80
55604;BME280;41468;48.838;9.330;2022-12-18T10:55:59;99568.03;;;-2.63;80.86
55604;BME280;41468;48.838;9.330;2022-12-18T11:07:02;99573.28;;;-2.25;80.12
55604;BME280;41468;48.838;9.330;2022-12-18T11:09:30;99569.34;;;-2.17;79.78
55604;BME280;41468;48.838;9.330;2022-12-18T11:12:00;99561.31;;;-2.17;79.10
55604;BME280;41468;48.838;9.330;2022-12-18T11:14:42;99553.06;;;-2.10;78.97
55604;BME280;41468;48.838;9.330;2022-12-18T11:17:27;99549.94;;;-2.02;78.71
55604;BME280;41468;48.838;9.330;2022-12-18T11:20:06;99549.44;;;-1.99;78.51
55604;BME280;41468;48.838;9.330;2022-12-18T11:22:41;99543.66;;;-1.86;78.17
55604;BME280;41468;48.838;9.330;2022-12-18T11:28:01;99519.78;;;-1.55;83.18
55604;BME280;41468;48.838;9.330;2022-12-18T11:30:36;99519.81;;;-1.50;78.52
55604;BME280;41468;48.838;9.330;2022-12-18T11:33:10;99510.06;;;-1.66;78.27
55604;BME280;41468;48.838;9.330;2022-12-18T11:38:22;99520.22;;;-1.68;78.57
55604;BME280;41468;48.838;9.330;2022-12-18T11:40:58;99522.66;;;-1.62;77.71
55604;BME280;41468;48.838;9.330;2022-12-18T11:43:37;99520.84;;;-1.56;77.89
55604;BME280;41468;48.838;9.330;2022-12-18T11:46:14;99513.88;;;-1.57;77.60
55604;BME280;41468;48.838;9.330;2022-12-18T11:48:53;99514.16;;;-1.53;77.59
55604;BME280;41468;48.838;9.330;2022-12-18T11:51:31;99513.66;;;-1.50;78.54
55604;BME280;41468;48.838;9.330;2022-12-18T11:54:00;99504.31;;;-1.43;78.27
55604;BME280;41468;48.838;9.330;2022-12-18T11:56:35;99492.84;;;-1.33;77.45
55604;BME280;41468;48.838;9.330;2022-12-18T12:02:21;99489.44;;;-1.23;75.95
55604;BME280;41468;48.838;9.330;2022-12-18T12:07:45;99494.28;;;-1.15;76.26
55604;BME280;41468;48.838;9.330;2022-12-18T12:15:47;99483.03;;;-1.12;76.09
55604;BME280;41468;48.838;9.330;2022-12-18T12:18:43;99478.19;;;-1.15;76.44
55604;BME280;41468;48.838;9.330;2022-12-18T12:21:28;99479.03;;;-1.09;75.76
55604;BME280;41468;48.838;9.330;2022-12-18T12:30:08;99475.56;;;-1.00;75.54
55604;BME280;41468;48.838;9.330;2022-12-18T12:38:28;99473.47;;;-0.87;75.25
55604;BME280;41468;48.838;9.330;2022-12-18T12:41:06;99476.91;;;-0.97;74.91
55604;BME280;41468;48.838;9.330;2022-12-18T12:43:56;99464.63;;;-0.83;75.84
55604;BME280;41468;48.838;9.330;2022-12-18T12:46:25;99485.28;;;-0.78;74.46
55604;BME280;41468;48.838;9.330;2022-12-18T12:48:58;99488.47;;;-0.86;75.08
55604;BME280;41468;48.838;9.330;2022-12-18T12:51:39;99483.09;;;-0.97;74.54
55604;BME280;41468;48.838;9.330;2022-12-18T12:54:21;99477.75;;;-0.97;76.00
55604;BME280;41468;48.838;9.330;2022-12-18T12:56:50;99486.03;;;-0.98;75.35
55604;BME280;41468;48.838;9.330;2022-12-18T12:59:52;99484.94;;;-0.97;75.38
55604;BME280;41468;48.838;9.330;2022-12-18T13:02:48;99487.97;;;-0.88;74.43
55604;BME280;41468;48.838;9.330;2022-12-18T13:08:26;99497.59;;;-0.93;74.63
55604;BME280;41468;48.838;9.330;2022-12-18T13:10:59;99498.09;;;-0.96;75.07
55604;BME280;41468;48.838;9.330;2022-12-18T13:13:54;99486.84;;;-0.93;74.95
55604;BME280;41468;48.838;9.330;2022-12-18T13:16:25;99480.16;;;-0.90;75.80
55604;BME280;41468;48.838;9.330;2022-12-18T13:18:57;99485.25;;;-0.83;75.15
55604;BME280;41468;48.838;9.330;2022-12-18T13:21:33;99494.88;;;-0.98;74.39
55604;BME280;41468;48.838;9.330;2022-12-18T13:24:15;99503.50;;;-0.91;75.21
55604;BME280;41468;48.838;9.330;2022-12-18T13:26:49;99496.53;;;-0.86;75.52
55604;BME280;41468;48.838;9.330;2022-12-18T13:29:42;99496.56;;;-0.76;75.33
55604;BME280;41468;48.838;9.330;2022-12-18T13:32:23;99491.72;;;-0.79;74.56
55604;BME280;41468;48.838;9.330;2022-12-18T13:35:38;99480.19;;;-0.80;74.37
55604;BME280;41468;48.838;9.330;2022-12-18T13:43:47;99477.00;;;-0.72;75.59
55604;BME280;41468;48.838;9.330;2022-12-18T13:46:42;99474.28;;;-0.82;73.96
55604;BME280;41468;48.838;9.330;2022-12-18T13:51:52;99463.31;;;-0.80;74.59
55604;BME280;41468;48.838;9.330;2022-12-18T13:56:55;99467.06;;;-0.76;74.31
55604;BME280;41468;48.838;9.330;2022-12-18T13:59:24;99471.78;;;-1.09;75.51
55604;BME280;41468;48.838;9.330;2022-12-18T14:01:56;99472.34;;;-1.02;75.99
55604;BME280;41468;48.838;9.330;2022-12-18T14:04:27;99473.44;;;-0.93;76.41
55604;BME280;41468;48.838;9.330;2022-12-18T14:07:02;99471.56;;;-0.92;76.29
55604;BME280;41468;48.838;9.330;2022-12-18T14:09:35;99472.91;;;-0.95;76.53
55604;BME280;41468;48.838;9.330;2022-12-18T14:12:05;99469.72;;;-0.81;75.91
55604;BME280;41468;48.838;9.330;2022-12-18T14:14:51;99479.91;;;-0.78;74.70
55604;BME280;41468;48.838;9.330;2022-12-18T14:17:22;99480.47;;;-0.76;75.17
55604;BME280;41468;48.838;9.330;2022-12-18T14:19:50;99480.44;;;-0.86;74.88
55604;BME280;41468;48.838;9.330;2022-12-18T14:22:18;99484.72;;;-0.91;75.22
55604;BME280;41468;48.838;9.330;2022-12-18T14:24:46;99486.59;;;-0.96;75.78
55604;BME280;41468;48.838;9.330;2022-12-18T14:27:24;99492.22;;;-0.93;74.96
55604;BME280;41468;48.838;9.330;2022-12-18T14:29:51;99483.09;;;-1.02;75.55
55604;BME280;41468;48.838;9.330;2022-12-18T14:32:20;99483.34;;;-1.03;75.93
55604;BME280;41468;48.838;9.330;2022-12-18T14:34:49;99488.94;;;-1.10;75.75
55604;BME280;41468;48.838;9.330;2022-12-18T14:37:20;99494.25;;;-0.11;84.55
55604;BME280;41468;48.838;9.330;2022-12-18T14:40:01;99488.06;;;-0.48;74.79
55604;BME280;41468;48.838;9.330;2022-12-18T14:42:36;99498.34;;;-1.02;75.45
55604;BME280;41468;48.838;9.330;2022-12-18T14:45:36;99485.41;;;-1.16;76.51
55604;BME280;41468;48.838;9.330;2022-12-18T14:48:19;99475.50;;;-1.20;76.49
55604;BME280;41468;48.838;9.330;2022-12-18T14:53:31;99491.91;;;-1.54;77.74
55604;BME280;41468;48.838;9.330;2022-12-18T14:55:58;99484.72;;;-1.48;77.73